createdAt,value
2018-11-03T00:01:02.026Z,5.89
2018-11-03T00:03:31.405Z,5.92
2018-11-03T00:06:01.134Z,5.91
2018-11-03T00:08:30.432Z,5.88
2018-11-03T00:11:19.943Z,5.82
2018-11-03T00:13:49.785Z,5.80
2018-11-03T00:16:19.800Z,5.76
2018-11-03T00:18:49.488Z,5.76
2018-11-03T00:21:18.832Z,5.75
2018-11-03T00:23:48.097Z,5.74
2018-11-03T00:26:17.730Z,5.73
2018-11-03T00:28:47.510Z,5.70
2018-11-03T00:31:16.981Z,5.66
2018-11-03T00:33:46.559Z,5.64
2018-11-03T00:36:16.361Z,5.61
2018-11-03T00:38:45.842Z,5.58
2018-11-03T00:41:15.042Z,5.57
2018-11-03T00:43:44.725Z,5.54
2018-11-03T00:46:14.193Z,5.54
2018-11-03T00:48:43.686Z,5.51
2018-11-03T00:51:13.505Z,5.48
2018-11-03T00:53:42.982Z,5.44
2018-11-03T00:56:12.717Z,5.44
2018-11-03T00:58:42.209Z,5.42
2018-11-03T01:01:11.676Z,5.41
2018-11-03T01:03:41.154Z,5.40
2018-11-03T01:06:10.697Z,5.39
2018-11-03T01:08:39.842Z,5.37
2018-11-03T01:11:09.610Z,5.36
2018-11-03T01:13:39.085Z,5.36
2018-11-03T01:16:08.676Z,5.36
2018-11-03T01:18:38.151Z,5.34
2018-11-03T01:21:07.950Z,5.31
2018-11-03T01:23:37.731Z,5.29
2018-11-03T01:26:07.181Z,5.23
2018-11-03T01:28:36.822Z,5.16
2018-11-03T01:31:06.265Z,5.12
2018-11-03T01:33:35.822Z,5.07
2018-11-03T01:36:05.871Z,5.05
2018-11-03T01:38:35.354Z,5.01
2018-11-03T01:41:05.111Z,4.97
2018-11-03T01:43:34.850Z,4.94
2018-11-03T01:46:04.099Z,4.91
2018-11-03T01:48:33.814Z,4.89
2018-11-03T01:51:03.575Z,4.87
2018-11-03T01:53:33.041Z,4.84
2018-11-03T01:56:02.796Z,4.78
2018-11-03T01:58:32.273Z,4.74
2018-11-03T02:01:01.960Z,4.72
2018-11-03T02:03:31.718Z,4.70
2018-11-03T02:06:01.206Z,4.68
2018-11-03T02:08:30.960Z,4.68
2018-11-03T02:11:00.205Z,4.65
2018-11-03T02:13:29.765Z,4.63
2018-11-03T02:15:59.245Z,4.61
2018-11-03T02:18:28.891Z,4.59
2018-11-03T02:20:58.886Z,4.56
2018-11-03T02:23:28.155Z,4.56
2018-11-03T02:25:57.706Z,4.56
2018-11-03T02:28:27.176Z,4.58
2018-11-03T02:30:56.950Z,4.58
2018-11-03T02:33:32.050Z,4.57
2018-11-03T02:36:01.302Z,4.54
2018-11-03T02:38:31.076Z,4.53
2018-11-03T02:41:00.349Z,4.52
2018-11-03T02:43:29.962Z,4.49
2018-11-03T02:45:59.436Z,4.47
2018-11-03T02:48:28.897Z,4.44
2018-11-03T02:50:59.022Z,4.37
2018-11-03T02:53:28.489Z,4.33
2018-11-03T02:55:58.258Z,4.31
2018-11-03T02:58:28.077Z,4.29
2018-11-03T03:00:57.839Z,4.26
2018-11-03T03:03:27.318Z,4.24
2018-11-03T03:05:57.235Z,4.24
2018-11-03T03:08:26.662Z,4.23
2018-11-03T03:10:56.379Z,4.24
2018-11-03T03:13:25.377Z,4.24
2018-11-03T03:15:55.166Z,4.20
2018-11-03T03:18:24.923Z,4.17
2018-11-03T03:20:54.678Z,4.15
2018-11-03T03:23:24.198Z,4.13
2018-11-03T03:25:53.958Z,4.10
2018-11-03T03:28:23.437Z,4.10
2018-11-03T03:30:53.433Z,4.08
2018-11-03T03:33:23.009Z,4.06
2018-11-03T03:35:53.440Z,4.04
2018-11-03T03:38:23.218Z,4.02
2018-11-03T03:40:53.574Z,4.00
2018-11-03T03:43:23.154Z,3.97
2018-11-03T03:45:53.405Z,3.94
2018-11-03T03:48:23.282Z,3.93
2018-11-03T03:50:53.477Z,3.97
2018-11-03T03:53:23.226Z,3.97
2018-11-03T03:55:53.101Z,3.99
2018-11-03T03:58:22.572Z,3.97
2018-11-03T04:00:53.695Z,3.96
2018-11-03T04:03:23.177Z,3.94
2018-11-03T04:05:53.436Z,3.93
2018-11-03T04:08:23.180Z,3.90
2018-11-03T04:10:52.633Z,3.88
2018-11-03T04:13:22.430Z,3.85
2018-11-03T04:15:53.549Z,3.90
2018-11-03T04:18:23.124Z,3.88
2018-11-03T04:20:53.517Z,3.88
2018-11-03T04:23:22.817Z,3.88
2018-11-03T04:25:53.557Z,3.84
2018-11-03T04:28:23.268Z,3.83
2018-11-03T04:30:53.250Z,3.84
2018-11-03T04:33:22.723Z,3.85
2018-11-03T04:35:53.209Z,3.86
2018-11-03T04:38:22.678Z,3.86
2018-11-03T04:40:53.894Z,3.85
2018-11-03T04:43:23.181Z,3.81
2018-11-03T04:45:53.555Z,3.84
2018-11-03T04:48:23.176Z,3.84
2018-11-03T04:50:53.563Z,3.83
2018-11-03T04:53:23.389Z,3.82
2018-11-03T04:55:53.574Z,3.78
2018-11-03T04:58:23.610Z,3.76
2018-11-03T05:00:53.566Z,3.73
2018-11-03T05:03:23.226Z,3.69
2018-11-03T05:05:53.538Z,3.65
2018-11-03T05:08:23.361Z,3.59
2018-11-03T05:10:53.517Z,3.58
2018-11-03T05:13:23.342Z,3.58
2018-11-03T05:15:53.682Z,3.55
2018-11-03T05:18:24.241Z,3.54
2018-11-03T05:20:53.739Z,3.53
2018-11-03T05:23:23.458Z,3.52
2018-11-03T05:25:53.815Z,3.53
2018-11-03T05:28:23.334Z,3.51
2018-11-03T05:30:53.708Z,3.52
2018-11-03T05:33:23.672Z,3.53
2018-11-03T05:35:53.353Z,3.53
2018-11-03T05:38:22.817Z,3.53
2018-11-03T05:40:54.237Z,3.54
2018-11-03T05:43:23.712Z,3.55
2018-11-03T05:45:53.797Z,3.55
2018-11-03T05:48:23.338Z,3.54
2018-11-03T05:50:53.701Z,3.54
2018-11-03T05:53:22.598Z,3.54
2018-11-03T05:55:53.429Z,3.52
2018-11-03T05:58:22.914Z,3.47
2018-11-03T06:00:53.659Z,3.44
2018-11-03T06:03:23.379Z,3.40
2018-11-03T06:05:53.795Z,3.36
2018-11-03T06:08:23.594Z,3.34
2018-11-03T06:10:54.412Z,3.37
2018-11-03T06:13:24.222Z,3.38
2018-11-03T06:15:53.786Z,3.39
2018-11-03T06:18:23.361Z,3.40
2018-11-03T06:20:53.737Z,3.44
2018-11-03T06:23:23.857Z,3.47
2018-11-03T06:25:53.927Z,3.50
2018-11-03T06:28:23.250Z,3.51
2018-11-03T06:30:53.778Z,3.52
2018-11-03T06:33:23.467Z,3.51
2018-11-03T06:35:53.800Z,3.49
2018-11-03T06:38:24.001Z,3.46
2018-11-03T06:40:53.890Z,3.41
2018-11-03T06:43:23.527Z,3.39
2018-11-03T06:45:53.527Z,3.36
2018-11-03T06:48:22.997Z,3.31
2018-11-03T06:50:53.794Z,3.27
2018-11-03T06:53:23.829Z,3.25
2018-11-03T06:55:54.850Z,3.27
2018-11-03T06:58:24.249Z,3.26
2018-11-03T07:00:53.895Z,3.25
2018-11-03T07:03:23.569Z,3.29
2018-11-03T07:05:53.862Z,3.34
2018-11-03T07:08:23.617Z,3.38
2018-11-03T07:10:53.901Z,3.44
2018-11-03T07:13:23.674Z,3.48
2018-11-03T07:15:53.933Z,3.57
2018-11-03T07:18:23.598Z,3.79
2018-11-03T07:20:53.940Z,4.26
2018-11-03T07:23:23.735Z,4.84
2018-11-03T07:25:54.346Z,5.47
2018-11-03T07:28:23.818Z,6.06
2018-11-03T07:30:53.998Z,6.52
2018-11-03T07:33:23.570Z,6.87
2018-11-03T07:35:53.913Z,7.12
2018-11-03T07:38:23.664Z,7.33
2018-11-03T07:40:54.040Z,7.47
2018-11-03T07:43:23.725Z,7.48
2018-11-03T07:45:53.930Z,7.50
2018-11-03T07:48:23.388Z,7.56
2018-11-03T07:50:53.965Z,7.65
2018-11-03T07:53:23.255Z,7.72
2018-11-03T07:55:53.761Z,7.81
2018-11-03T07:58:23.238Z,7.98
2018-11-03T08:00:54.262Z,8.18
2018-11-03T08:03:23.534Z,8.28
2018-11-03T08:05:54.080Z,8.38
2018-11-03T08:08:24.090Z,8.43
2018-11-03T08:10:53.921Z,8.38
2018-11-03T08:13:23.741Z,8.33
2018-11-03T08:15:56.053Z,8.37
2018-11-03T08:18:25.647Z,8.48
2018-11-03T08:20:55.410Z,8.63
2018-11-03T08:23:24.885Z,8.71
2018-11-03T08:25:54.378Z,8.76
2018-11-03T08:28:23.551Z,8.73
2018-11-03T08:30:54.211Z,8.79
2018-11-03T08:33:23.796Z,8.96
2018-11-03T08:35:54.050Z,9.08
2018-11-03T08:38:23.843Z,9.13
2018-11-03T08:40:53.892Z,9.10
2018-11-03T08:43:28.205Z,9.14
2018-11-03T08:45:58.630Z,9.31
2018-11-03T08:48:28.177Z,9.53
2018-11-03T08:50:58.043Z,9.64
2018-11-03T08:53:27.182Z,9.69
2018-11-03T08:55:56.965Z,9.72
2018-11-03T08:58:26.726Z,9.76
2018-11-03T09:00:56.241Z,9.88
2018-11-03T09:03:25.849Z,10.15
2018-11-03T09:05:55.642Z,10.43
2018-11-03T09:08:24.886Z,10.72
2018-11-03T09:10:54.446Z,10.90
2018-11-03T09:13:23.946Z,11.03
2018-11-03T09:15:53.881Z,11.12
2018-11-03T09:18:23.375Z,11.24
2018-11-03T09:20:54.374Z,11.36
2018-11-03T09:23:24.026Z,11.48
2018-11-03T09:25:53.734Z,11.53
2018-11-03T09:28:23.177Z,11.55
2018-11-03T09:30:54.239Z,11.71
2018-11-03T09:33:24.010Z,11.82
2018-11-03T09:35:53.890Z,11.90
2018-11-03T09:38:23.373Z,11.98
2018-11-03T09:40:55.675Z,12.06
2018-11-03T09:43:25.199Z,12.05
2018-11-03T09:45:54.922Z,11.98
2018-11-03T09:48:24.413Z,11.94
2018-11-03T09:50:54.294Z,11.96
2018-11-03T09:53:24.070Z,11.96
2018-11-03T09:55:54.414Z,11.84
2018-11-03T09:58:24.380Z,11.72
2018-11-03T10:00:54.301Z,11.71
2018-11-03T10:03:24.087Z,11.85
2018-11-03T10:05:54.338Z,12.03
2018-11-03T10:08:23.811Z,12.15
2018-11-03T10:10:54.447Z,12.25
2018-11-03T10:13:23.958Z,12.30
2018-11-03T10:15:54.374Z,12.45
2018-11-03T10:18:24.322Z,12.75
2018-11-03T10:20:54.353Z,13.05
2018-11-03T10:23:24.194Z,13.39
2018-11-03T10:25:54.386Z,13.64
2018-11-03T10:28:24.369Z,14.00
2018-11-03T10:30:54.485Z,14.25
2018-11-03T10:33:24.322Z,14.36
2018-11-03T10:35:54.521Z,14.38
2018-11-03T10:38:24.170Z,14.60
2018-11-03T10:40:54.184Z,14.90
2018-11-03T10:43:23.687Z,15.15
2018-11-03T10:45:54.482Z,15.37
2018-11-03T10:48:24.113Z,15.54
2018-11-03T10:50:54.658Z,15.46
2018-11-03T10:53:24.222Z,15.39
2018-11-03T10:55:54.506Z,15.56
2018-11-03T10:58:29.858Z,15.71
2018-11-03T11:00:59.406Z,15.72
2018-11-03T11:06:30.754Z,15.84
2018-11-03T11:12:12.298Z,15.97
2018-11-03T11:14:41.912Z,15.95
2018-11-03T11:17:11.397Z,15.95
2018-11-03T11:19:43.012Z,16.11
2018-11-03T11:22:12.525Z,16.40
2018-11-03T11:24:41.806Z,16.58
2018-11-03T11:27:11.500Z,16.71
2018-11-03T11:29:41.258Z,16.91
2018-11-03T11:32:10.739Z,17.21
2018-11-03T11:34:40.336Z,17.57
2018-11-03T11:37:09.779Z,17.85
2018-11-03T11:39:39.250Z,18.06
2018-11-03T11:42:09.321Z,18.26
2018-11-03T11:44:38.801Z,18.50
2018-11-03T11:47:08.543Z,18.28
2018-11-03T11:49:37.812Z,17.96
2018-11-03T11:52:07.554Z,17.98
2018-11-03T11:54:37.332Z,18.05
2018-11-03T11:57:06.799Z,18.05
2018-11-03T11:59:36.452Z,18.06
2018-11-03T12:02:05.569Z,18.16
2018-11-03T12:04:35.017Z,18.21
2018-11-03T12:07:04.285Z,18.25
2018-11-03T12:09:34.033Z,18.35
2018-11-03T12:12:03.302Z,18.37
2018-11-03T12:14:32.845Z,18.28
2018-11-03T12:17:02.613Z,18.21
2018-11-03T12:19:32.071Z,18.12
2018-11-03T12:22:02.178Z,17.87
2018-11-03T12:24:31.728Z,17.64
2018-11-03T12:27:01.161Z,17.46
2018-11-03T12:29:31.438Z,17.35
2018-11-03T12:32:01.356Z,17.50
2018-11-03T12:34:30.810Z,17.69
2018-11-03T12:37:00.279Z,17.81
2018-11-03T12:39:29.818Z,18.12
2018-11-03T12:41:59.291Z,18.40
2018-11-03T12:44:28.863Z,18.54
2018-11-03T12:46:58.641Z,18.70
2018-11-03T12:49:27.892Z,18.91
2018-11-03T12:51:57.642Z,19.09
2018-11-03T12:54:27.102Z,19.23
2018-11-03T12:56:56.971Z,19.38
2018-11-03T12:59:26.835Z,19.51
2018-11-03T13:01:56.041Z,19.73
2018-11-03T13:04:25.869Z,19.85
2018-11-03T13:06:54.978Z,19.83
2018-11-03T13:09:24.254Z,19.71
2018-11-03T13:11:55.078Z,19.72
2018-11-03T13:14:24.542Z,19.96
2018-11-03T13:16:55.494Z,20.04
2018-11-03T13:19:24.830Z,19.93
2018-11-03T13:21:55.111Z,19.74
2018-11-03T13:24:24.090Z,19.47
2018-11-03T13:26:53.366Z,19.29
2018-11-03T13:29:22.965Z,19.37
2018-11-03T13:31:55.433Z,19.42
2018-11-03T13:34:24.846Z,19.26
2018-11-03T13:36:55.130Z,19.03
2018-11-03T13:39:24.682Z,18.58
2018-11-03T13:41:55.342Z,18.44
2018-11-03T13:44:24.893Z,18.42
2018-11-03T13:46:54.194Z,18.41
2018-11-03T13:49:23.505Z,18.44
2018-11-03T13:51:53.089Z,18.30
2018-11-03T13:54:22.350Z,18.15
2018-11-03T13:56:51.685Z,17.78
2018-11-03T13:59:21.173Z,17.52
2018-11-03T14:01:50.418Z,17.45
2018-11-03T14:04:20.342Z,17.26
2018-11-03T14:06:49.958Z,17.16
2018-11-03T14:09:19.225Z,16.98
2018-11-03T14:11:48.573Z,16.52
2018-11-03T14:14:18.153Z,16.12
2018-11-03T14:16:47.146Z,15.96
2018-11-03T14:19:16.147Z,15.95
2018-11-03T14:21:45.141Z,16.05
2018-11-03T14:24:14.423Z,16.31
2018-11-03T14:26:43.722Z,16.50
2018-11-03T14:29:13.401Z,16.73
2018-11-03T14:31:43.070Z,16.81
2018-11-03T14:34:12.409Z,16.95
2018-11-03T14:36:41.975Z,17.03
2018-11-03T14:39:11.158Z,16.93
2018-11-03T14:41:40.413Z,16.83
2018-11-03T14:44:10.283Z,16.74
2018-11-03T14:46:39.321Z,16.47
2018-11-03T14:49:09.074Z,16.37
2018-11-03T14:51:38.013Z,16.26
2018-11-03T14:54:07.373Z,16.03
2018-11-03T14:56:36.678Z,15.64
2018-11-03T14:59:06.074Z,15.29
2018-11-03T15:01:35.705Z,14.97
2018-11-03T15:04:04.561Z,14.70
2018-11-03T15:06:34.066Z,14.59
2018-11-03T15:09:03.125Z,14.49
2018-11-03T15:11:32.394Z,14.39
2018-11-03T15:14:01.559Z,14.31
2018-11-03T15:16:31.166Z,14.25
2018-11-03T15:19:00.501Z,14.17
2018-11-03T15:21:30.037Z,14.04
2018-11-03T15:23:59.451Z,13.93
2018-11-03T15:26:28.729Z,13.74
2018-11-03T15:28:58.286Z,13.58
2018-11-03T15:31:27.572Z,13.42
2018-11-03T15:33:57.725Z,13.26
2018-11-03T15:36:26.945Z,13.11
2018-11-03T15:38:56.485Z,12.95
2018-11-03T15:41:25.779Z,12.84
2018-11-03T15:43:55.785Z,12.72
2018-11-03T15:46:25.256Z,12.60
2018-11-03T15:48:55.601Z,12.42
2018-11-03T15:51:25.191Z,12.35
2018-11-03T15:53:55.718Z,12.27
2018-11-03T15:56:25.223Z,12.18
2018-11-03T15:58:57.082Z,12.10
2018-11-03T16:01:26.633Z,12.02
2018-11-03T16:04:08.082Z,11.90
2018-11-03T16:06:49.670Z,11.75
2018-11-03T16:09:28.594Z,11.58
2018-11-03T16:11:58.563Z,11.42
2018-11-03T16:14:28.254Z,11.32
2018-11-03T16:16:57.217Z,11.20
2018-11-03T16:19:26.577Z,11.13
2018-11-03T16:21:56.046Z,11.05
2018-11-03T16:24:25.386Z,10.95
2018-11-03T16:26:55.639Z,10.82
2018-11-03T16:29:25.275Z,10.77
2018-11-03T16:31:55.405Z,10.72
2018-11-03T16:34:24.824Z,10.65
2018-11-03T16:36:55.431Z,10.53
2018-11-03T16:39:24.717Z,10.41
2018-11-03T16:41:55.361Z,10.26
2018-11-03T16:44:24.390Z,10.16
2018-11-03T16:46:53.674Z,10.09
2018-11-03T16:49:22.946Z,10.01
2018-11-03T16:51:52.329Z,9.94
2018-11-03T16:54:21.046Z,9.93
2018-11-03T16:56:50.521Z,9.88
2018-11-03T16:59:19.782Z,9.82
2018-11-03T17:01:49.058Z,9.75
2018-11-03T17:04:19.306Z,9.66
2018-11-03T17:06:48.648Z,9.54
2018-11-03T17:09:18.113Z,9.47
2018-11-03T17:11:47.509Z,9.43
2018-11-03T17:14:16.774Z,9.34
2018-11-03T17:16:46.042Z,9.23
2018-11-03T17:19:15.538Z,9.15
2018-11-03T17:21:44.822Z,9.10
2018-11-03T17:24:14.426Z,9.06
2018-11-03T17:26:43.690Z,9.03
2018-11-03T17:29:13.214Z,9.03
2018-11-03T17:31:42.533Z,8.98
2018-11-03T17:34:18.202Z,8.97
2018-11-03T17:36:47.512Z,8.95
2018-11-03T17:39:16.778Z,8.92
2018-11-03T17:41:46.341Z,8.88
2018-11-03T17:44:15.696Z,8.84
2018-11-03T17:46:45.090Z,8.81
2018-11-03T17:49:14.781Z,8.79
2018-11-03T17:51:44.330Z,8.73
2018-11-03T17:54:13.595Z,8.66
2018-11-03T17:56:42.877Z,8.55
2018-11-03T17:59:12.735Z,8.43
2018-11-03T18:01:42.145Z,8.37
2018-11-03T18:04:11.730Z,8.30
2018-11-03T18:06:41.684Z,8.22
2018-11-03T18:09:10.764Z,8.14
2018-11-03T18:11:40.318Z,8.06
2018-11-03T18:14:09.780Z,7.95
2018-11-03T18:16:39.529Z,7.85
2018-11-03T18:19:09.007Z,7.84
2018-11-03T18:21:38.629Z,7.81
2018-11-03T18:24:08.090Z,7.74
2018-11-03T18:26:37.705Z,7.68
2018-11-03T18:29:07.106Z,7.61
2018-11-03T18:31:36.685Z,7.50
2018-11-03T18:34:05.625Z,7.40
2018-11-03T18:36:34.926Z,7.37
2018-11-03T18:39:03.998Z,7.34
2018-11-03T18:41:33.080Z,7.27
2018-11-03T18:44:02.782Z,7.23
2018-11-03T18:46:31.877Z,7.18
2018-11-03T18:49:02.953Z,7.13
2018-11-03T18:51:32.239Z,7.09
2018-11-03T18:54:01.246Z,7.09
2018-11-03T18:56:30.649Z,7.09
2018-11-03T18:58:59.955Z,7.07
2018-11-03T19:01:28.925Z,7.05
2018-11-03T19:03:58.481Z,7.01
2018-11-03T19:06:28.023Z,6.96
2018-11-03T19:08:57.893Z,6.93
2018-11-03T19:11:27.193Z,6.90
2018-11-03T19:13:56.819Z,6.87
2018-11-03T19:16:26.282Z,6.85
2018-11-03T19:18:57.015Z,6.82
2018-11-03T19:21:26.314Z,6.79
2018-11-03T19:23:56.205Z,6.77
2018-11-03T19:26:25.657Z,6.74
2018-11-03T19:28:56.310Z,6.70
2018-11-03T19:31:25.866Z,6.67
2018-11-03T19:33:56.175Z,6.62
2018-11-03T19:36:25.789Z,6.57
2018-11-03T19:38:56.034Z,6.52
2018-11-03T19:41:25.363Z,6.46
2018-11-03T19:43:56.044Z,6.40
2018-11-03T19:46:25.356Z,6.40
2018-11-03T19:48:56.306Z,6.38
2018-11-03T19:51:25.858Z,6.33
2018-11-03T19:53:56.189Z,6.29
2018-11-03T19:56:26.099Z,6.23
2018-11-03T19:58:56.319Z,6.16
2018-11-03T20:01:26.239Z,6.10
2018-11-03T20:03:56.198Z,6.04
2018-11-03T20:06:25.767Z,6.00
2018-11-03T20:09:08.625Z,5.96
2018-11-03T20:11:37.898Z,5.89
2018-11-03T20:14:07.372Z,5.82
2018-11-03T20:16:36.771Z,5.81
2018-11-03T20:19:06.051Z,5.80
2018-11-03T20:21:35.334Z,5.77
2018-11-03T20:24:04.370Z,5.76
2018-11-03T20:26:33.886Z,5.74
2018-11-03T20:29:03.453Z,5.68
2018-11-03T20:31:33.301Z,5.61
2018-11-03T20:34:03.174Z,5.58
2018-11-03T20:36:32.890Z,5.59
2018-11-03T20:39:02.157Z,5.62
2018-11-03T20:41:31.451Z,5.59
2018-11-03T20:44:01.077Z,5.58
2018-11-03T20:46:30.330Z,5.62
2018-11-03T20:48:59.114Z,5.64
2018-11-03T20:51:28.382Z,5.66
2018-11-03T20:53:58.436Z,5.68
2018-11-03T20:56:28.114Z,5.67
2018-11-03T20:58:57.657Z,5.64
2018-11-03T21:01:27.365Z,5.64
2018-11-03T21:03:56.931Z,5.65
2018-11-03T21:06:26.203Z,5.66
2018-11-03T21:08:56.383Z,5.67
2018-11-03T21:11:25.961Z,5.67
2018-11-03T21:13:56.267Z,5.67
2018-11-03T21:16:25.619Z,5.63
2018-11-03T21:18:55.382Z,5.58
2018-11-03T21:21:25.001Z,5.53
2018-11-03T21:23:54.115Z,5.48
2018-11-03T21:26:23.717Z,5.43
2018-11-03T21:28:52.951Z,5.36
2018-11-03T21:31:22.218Z,5.31
2018-11-03T21:33:51.498Z,5.27
2018-11-03T21:36:20.950Z,5.24
2018-11-03T21:38:49.934Z,5.20
2018-11-03T21:41:19.361Z,5.16
2018-11-03T21:43:48.642Z,5.13
2018-11-03T21:46:18.441Z,5.11
2018-11-03T21:48:48.057Z,5.10
2018-11-03T21:51:17.095Z,5.08
2018-11-03T21:53:46.373Z,5.07
2018-11-03T21:56:15.932Z,5.07
2018-11-03T21:58:45.689Z,5.02
2018-11-03T22:01:14.838Z,5.02
2018-11-03T22:03:44.111Z,4.99
2018-11-03T22:06:13.731Z,4.98
2018-11-03T22:08:43.182Z,4.96
2018-11-03T22:11:12.959Z,4.93
2018-11-03T22:13:42.338Z,4.92
2018-11-03T22:16:11.622Z,4.87
2018-11-03T22:18:41.204Z,4.83
2018-11-03T22:21:10.687Z,4.83
2018-11-03T22:23:40.190Z,4.80
2018-11-03T22:26:09.482Z,4.79
2018-11-03T22:28:38.413Z,4.77
2018-11-03T22:31:07.719Z,4.76
2018-11-03T22:33:37.321Z,4.75
2018-11-03T22:36:06.589Z,4.74
2018-11-03T22:38:36.151Z,4.71
2018-11-03T22:41:05.387Z,4.69
2018-11-03T22:43:34.666Z,4.66
2018-11-03T22:46:03.942Z,4.64
2018-11-03T22:48:33.412Z,4.62
2018-11-03T22:51:02.777Z,4.58
2018-11-03T22:53:32.357Z,4.54
2018-11-03T22:56:01.308Z,4.49
2018-11-03T22:58:30.586Z,4.44
2018-11-03T23:00:59.845Z,4.40
2018-11-03T23:03:29.361Z,4.38
2018-11-03T23:05:58.843Z,4.34
2018-11-03T23:08:27.959Z,4.34
2018-11-03T23:10:57.513Z,4.31
2018-11-03T23:13:26.873Z,4.27
2018-11-03T23:15:56.739Z,4.24
2018-11-03T23:18:26.305Z,4.20
2018-11-03T23:20:56.458Z,4.18
2018-11-03T23:23:25.734Z,4.13
2018-11-03T23:25:56.649Z,4.10
2018-11-03T23:28:25.931Z,4.10
2018-11-03T23:30:56.822Z,4.07
2018-11-03T23:33:26.399Z,4.03
2018-11-03T23:35:56.745Z,4.01
2018-11-03T23:38:25.686Z,3.99
2018-11-03T23:40:54.626Z,3.96
2018-11-03T23:43:23.577Z,3.94
2018-11-03T23:45:52.846Z,3.90
2018-11-03T23:48:22.447Z,3.87
2018-11-03T23:50:51.724Z,3.83
2018-11-03T23:53:21.500Z,3.81
2018-11-03T23:55:51.002Z,3.82
2018-11-03T23:58:20.186Z,3.83
